Time;durP1;ratioP1;P1;durP2;ratioP2;P2;SDS_P1;SDS_P2;PMS_P1;PMS_P2;Temp;Humidity;BMP_temperature;BMP_pressure;BME280_temperature;BME280_humidity;BME280_pressure;Samples;Min_cycle;Max_cycle;Signal;HPM_P1;HPM_P2
2021/12/30 00:01:26;;;;;;;24.27;4.13;;;7.90;99.90;;;;;;5101798;28;20181;-51
2021/12/30 00:03:52;;;;;;;22.95;3.45;;;7.80;99.90;;;;;;5098003;28;20054;-48
2021/12/30 00:06:21;;;;;;;22.33;3.70;;;7.80;99.90;;;;;;5093455;28;20035;-48
2021/12/30 00:08:48;;;;;;;24.10;3.75;;;7.80;99.90;;;;;;5089765;28;20044;-52
2021/12/30 00:11:14;;;;;;;23.03;3.93;;;7.80;99.90;;;;;;5083628;28;20048;-48
2021/12/30 00:13:45;;;;;;;28.88;3.35;;;7.70;99.90;;;;;;5078411;28;20783;-48
2021/12/30 00:16:16;;;;;;;25.40;3.22;;;7.70;99.90;;;;;;5088403;28;20043;-51
2021/12/30 00:18:43;;;;;;;25.45;3.80;;;7.70;99.90;;;;;;5070517;28;20071;-48
2021/12/30 00:21:10;;;;;;;21.80;3.15;;;7.60;99.90;;;;;;5109539;28;20035;-51
2021/12/30 00:23:36;;;;;;;18.98;3.47;;;7.60;99.90;;;;;;5107676;28;20243;-48
2021/12/30 00:26:03;;;;;;;19.42;3.78;;;7.60;99.90;;;;;;5070202;28;20055;-48
2021/12/30 00:28:29;;;;;;;25.08;3.38;;;7.60;99.90;;;;;;5070228;28;20041;-49
2021/12/30 00:30:55;;;;;;;23.42;4.75;;;7.60;99.90;;;;;;5123349;28;20597;-51
2021/12/30 00:33:22;;;;;;;21.55;3.70;;;7.50;99.90;;;;;;5060532;28;20149;-47
2021/12/30 00:35:49;;;;;;;25.85;4.00;;;7.50;99.90;;;;;;5092453;28;20088;-48
2021/12/30 00:38:16;;;;;;;38.85;4.32;;;7.50;99.90;;;;;;5079557;28;20050;-49
2021/12/30 00:40:43;;;;;;;30.45;4.47;;;7.60;99.90;;;;;;5110167;28;20039;-48
2021/12/30 00:43:08;;;;;;;35.97;4.55;;;7.50;99.90;;;;;;5094773;28;20146;-49
2021/12/30 00:45:35;;;;;;;24.23;3.85;;;7.60;99.90;;;;;;5087207;28;20600;-47
2021/12/30 00:48:03;;;;;;;29.42;4.75;;;7.60;99.90;;;;;;5107728;28;20044;-49
2021/12/30 00:50:30;;;;;;;27.02;4.88;;;7.60;99.90;;;;;;5069903;28;20044;-47
2021/12/30 00:52:58;;;;;;;33.45;5.25;;;7.60;99.90;;;;;;5087952;28;20129;-50
2021/12/30 00:55:25;;;;;;;32.58;4.93;;;7.60;99.90;;;;;;5082797;28;20044;-48
2021/12/30 00:57:50;;;;;;;30.60;5.25;;;7.60;99.90;;;;;;5070377;28;20394;-48
2021/12/30 01:00:18;;;;;;;40.10;5.45;;;7.60;99.90;;;;;;5077027;28;20047;-49
2021/12/30 01:02:44;;;;;;;;;;;7.60;99.90;;;;;;5078481;28;20050;-47
2021/12/30 01:05:10;;;;;;;32.85;5.07;;;7.60;99.90;;;;;;5106202;28;19916;-51
2021/12/30 01:07:37;;;;;;;30.23;4.75;;;7.60;99.90;;;;;;5070516;28;20048;-47
2021/12/30 01:10:06;;;;;;;35.72;5.68;;;7.60;99.90;;;;;;5087870;28;20490;-47
2021/12/30 01:12:32;;;;;;;35.05;5.68;;;7.60;99.90;;;;;;5069785;28;20047;-51
2021/12/30 01:14:58;;;;;;;38.25;5.85;;;7.50;99.90;;;;;;5115376;27;20071;-48
2021/12/30 01:17:40;;;;;;;40.10;5.20;;;7.50;99.90;;;;;;5075429;28;20040;-51
2021/12/30 01:20:10;;;;;;;39.70;4.85;;;7.50;99.90;;;;;;5082258;28;20075;-48
2021/12/30 01:22:36;;;;;;;33.35;5.35;;;7.50;99.90;;;;;;5074764;28;20566;-51
2021/12/30 01:25:04;;;;;;;45.70;6.05;;;7.40;99.90;;;;;;5110206;27;20485;-52
2021/12/30 01:27:32;;;;;;;38.55;5.45;;;7.40;99.90;;;;;;5074038;28;20044;-51
2021/12/30 01:29:58;;;;;;;39.05;5.90;;;7.40;99.90;;;;;;5091398;28;20521;-52
2021/12/30 01:32:23;;;;;;;39.67;5.57;;;7.40;99.90;;;;;;5105493;28;20032;-48
2021/12/30 01:34:49;;;;;;;33.67;4.60;;;7.40;99.90;;;;;;5073420;28;20153;-47
2021/12/30 01:37:20;;;;;;;42.08;7.88;;;7.40;99.90;;;;;;5095647;28;20036;-48
2021/12/30 01:39:49;;;;;;;41.80;5.72;;;7.40;99.90;;;;;;5110329;28;20117;-47
2021/12/30 01:42:15;;;;;;;35.20;5.63;;;7.30;99.90;;;;;;5109483;28;20075;-50
2021/12/30 01:44:41;;;;;;;32.38;5.35;;;7.30;99.90;;;;;;5077610;28;20075;-47
2021/12/30 01:47:08;;;;;;;38.40;5.28;;;7.30;99.90;;;;;;5082693;28;20052;-47
2021/12/30 01:49:34;;;;;;;38.85;5.57;;;7.30;99.90;;;;;;5090318;28;20496;-47
2021/12/30 01:52:00;;;;;;;36.33;6.20;;;7.30;99.90;;;;;;5092287;28;20043;-47
2021/12/30 01:54:27;;;;;;;33.57;5.20;;;7.30;99.90;;;;;;5096982;28;20146;-47
2021/12/30 01:56:56;;;;;;;45.50;5.63;;;7.30;99.90;;;;;;5090704;28;20444;-47
2021/12/30 01:59:23;;;;;;;42.20;5.85;;;7.30;99.90;;;;;;5073152;28;20051;-48
2021/12/30 02:01:56;;;;;;;39.78;5.90;;;7.30;99.90;;;;;;5097736;28;20042;-48
2021/12/30 02:04:27;;;;;;;42.08;5.78;;;7.30;99.90;;;;;;5053242;27;20584;-47
2021/12/30 02:06:54;;;;;;;40.92;5.97;;;7.30;99.90;;;;;;5094399;28;20104;-49
2021/12/30 02:09:21;;;;;;;40.72;5.70;;;7.20;99.90;;;;;;5072857;28;20048;-47
2021/12/30 02:11:48;;;;;;;42.97;5.53;;;7.20;99.90;;;;;;5081229;28;20043;-48
2021/12/30 02:14:15;;;;;;;35.25;5.78;;;7.20;99.90;;;;;;5097004;28;20047;-48
2021/12/30 02:16:42;;;;;;;37.35;5.88;;;7.20;99.90;;;;;;5107067;27;20511;-47
2021/12/30 02:19:08;;;;;;;42.65;6.55;;;7.10;99.90;;;;;;5074322;28;20101;-47
2021/12/30 02:21:34;;;;;;;41.70;5.63;;;7.10;99.90;;;;;;5111086;28;20146;-47
2021/12/30 02:24:00;;;;;;;31.95;5.22;;;7.20;99.90;;;;;;5093881;28;20166;-48
2021/12/30 02:26:26;;;;;;;39.60;5.15;;;7.10;99.90;;;;;;5078697;28;20039;-47
2021/12/30 02:28:54;;;;;;;45.22;6.32;;;7.10;99.90;;;;;;5100651;28;20489;-47
2021/12/30 02:31:26;;;;;;;44.40;5.28;;;7.10;99.90;;;;;;5071874;28;20051;-47
2021/12/30 02:33:55;;;;;;;36.83;5.68;;;7.10;99.90;;;;;;5090637;28;20043;-49
2021/12/30 02:36:36;;;;;;;42.97;5.78;;;7.20;99.90;;;;;;5105564;28;20044;-48
2021/12/30 02:39:06;;;;;;;40.67;5.03;;;7.20;99.90;;;;;;5090616;28;20054;-49
2021/12/30 02:41:34;;;;;;;34.30;5.32;;;7.20;99.90;;;;;;5118406;27;20066;-48
2021/12/30 02:44:02;;;;;;;46.22;5.78;;;7.10;99.90;;;;;;5055679;28;20086;-48
2021/12/30 02:46:30;;;;;;;41.63;5.50;;;7.10;99.90;;;;;;5101563;28;20554;-47
2021/12/30 02:48:59;;;;;;;36.63;5.05;;;7.20;99.90;;;;;;5073383;28;20126;-47
2021/12/30 02:51:26;;;;;;;38.75;5.57;;;7.20;99.90;;;;;;5092668;28;20052;-47
2021/12/30 02:53:53;;;;;;;38.45;5.07;;;7.10;99.90;;;;;;5089845;28;20043;-47
2021/12/30 02:56:20;;;;;;;36.58;5.82;;;7.10;99.90;;;;;;5089390;28;20286;-48
2021/12/30 02:58:47;;;;;;;31.80;4.65;;;7.10;99.90;;;;;;5071569;28;20044;-48
2021/12/30 03:01:20;;;;;;;39.63;5.78;;;7.10;99.90;;;;;;5072001;28;20081;-48
2021/12/30 03:03:46;;;;;;;37.35;5.35;;;7.10;99.90;;;;;;5071398;28;20047;-47
2021/12/30 03:06:15;;;;;;;36.10;5.18;;;7.10;99.90;;;;;;5078596;28;20442;-47
2021/12/30 03:08:43;;;;;;;32.95;5.30;;;7.10;99.90;;;;;;5090429;28;20056;-48
2021/12/30 03:11:09;;;;;;;43.25;6.15;;;7.10;99.90;;;;;;5091260;28;20044;-47
2021/12/30 03:13:40;;;;;;;30.85;5.78;;;7.10;99.90;;;;;;5055281;28;20482;-48
2021/12/30 03:16:11;;;;;;;40.38;5.75;;;7.20;99.90;;;;;;5106793;27;20534;-48
2021/12/30 03:18:38;;;;;;;39.95;6.40;;;7.20;99.90;;;;;;5071939;28;20052;-47
2021/12/30 03:21:07;;;;;;;43.28;6.43;;;7.20;99.90;;;;;;5056606;28;20040;-49
2021/12/30 03:23:34;;;;;;;34.63;5.65;;;7.20;99.90;;;;;;5071988;28;20062;-47
2021/12/30 03:26:01;;;;;;;40.63;6.73;;;7.30;99.90;;;;;;5084577;28;20116;-47
2021/12/30 03:28:29;;;;;;;49.33;8.07;;;7.30;99.90;;;;;;5077463;28;20298;-47
2021/12/30 03:30:58;;;;;;;49.28;7.40;;;7.30;99.90;;;;;;5094221;28;20046;-47
2021/12/30 03:33:29;;;;;;;47.47;7.68;;;7.30;99.90;;;;;;5095942;28;20101;-47
2021/12/30 03:36:00;;;;;;;39.97;7.00;;;7.30;99.90;;;;;;5086130;28;20040;-48
2021/12/30 03:38:32;;;;;;;43.03;7.93;;;7.30;99.90;;;;;;5067107;28;20055;-49
2021/12/30 03:40:59;;;;;;;42.45;7.28;;;7.30;99.90;;;;;;5068881;28;20045;-48
2021/12/30 03:43:28;;;;;;;43.43;9.50;;;7.40;99.90;;;;;;5068230;28;20119;-48
2021/12/30 03:45:55;;;;;;;52.28;8.98;;;7.30;99.90;;;;;;5108395;27;20486;-48
2021/12/30 03:48:21;;;;;;;55.63;9.80;;;7.40;99.90;;;;;;5082658;28;20044;-47
2021/12/30 03:50:48;;;;;;;45.67;8.43;;;7.50;99.90;;;;;;5068132;28;20571;-46
2021/12/30 03:53:16;;;;;;;56.25;8.82;;;7.50;99.90;;;;;;5073516;28;20067;-47
2021/12/30 03:55:43;;;;;;;60.78;9.50;;;7.50;99.90;;;;;;5088350;28;20044;-48
2021/12/30 03:58:09;;;;;;;43.78;9.82;;;7.50;99.90;;;;;;5071214;28;20136;-47
2021/12/30 04:00:37;;;;;;;55.97;10.05;;;7.60;99.90;;;;;;5055320;28;20051;-48
2021/12/30 04:03:05;;;;;;;60.35;10.68;;;7.60;99.90;;;;;;5080388;28;20063;-48
2021/12/30 04:05:31;;;;;;;53.10;10.25;;;7.60;99.90;;;;;;5069478;28;20119;-47
2021/12/30 04:07:57;;;;;;;56.28;11.85;;;7.60;99.90;;;;;;5086523;28;20501;-49
2021/12/30 04:10:24;;;;;;;52.13;10.45;;;7.60;99.90;;;;;;5060354;28;20067;-47
2021/12/30 04:12:51;;;;;;;52.35;11.45;;;7.70;99.90;;;;;;5070618;28;20379;-48
2021/12/30 04:15:18;;;;;;;49.28;10.90;;;7.70;99.90;;;;;;5068338;28;20098;-48
2021/12/30 04:17:44;;;;;;;50.92;10.57;;;7.70;99.90;;;;;;5080751;28;20592;-47
2021/12/30 04:20:13;;;;;;;46.90;11.90;;;7.70;99.90;;;;;;5066844;28;20126;-48
2021/12/30 04:22:40;;;;;;;58.63;10.82;;;7.70;99.90;;;;;;5071826;28;20482;-48
2021/12/30 04:25:10;;;;;;;51.63;10.27;;;7.80;99.90;;;;;;5088428;28;20048;-51
2021/12/30 04:27:37;;;;;;;51.47;10.30;;;7.80;99.90;;;;;;5072652;28;20058;-48
2021/12/30 04:30:05;;;;;;;61.15;10.35;;;7.80;99.90;;;;;;5058111;28;20525;-47
2021/12/30 04:32:31;;;;;;;54.58;10.40;;;7.80;99.90;;;;;;5073070;28;20044;-48
2021/12/30 04:34:57;;;;;;;53.97;10.57;;;7.90;99.90;;;;;;5075537;28;20390;-48
2021/12/30 04:37:23;;;;;;;53.20;10.85;;;7.90;99.90;;;;;;5096159;28;20049;-49
2021/12/30 04:39:49;;;;;;;47.80;9.60;;;7.90;99.90;;;;;;5086065;28;20059;-48
2021/12/30 04:42:16;;;;;;;54.03;10.18;;;7.90;99.90;;;;;;5088149;28;20051;-50
2021/12/30 04:44:43;;;;;;;59.40;10.23;;;7.90;99.90;;;;;;5101232;28;20036;-49
2021/12/30 04:47:10;;;;;;;52.50;8.90;;;7.90;99.90;;;;;;5068419;28;20062;-48
2021/12/30 04:49:36;;;;;;;59.97;10.50;;;8.00;99.90;;;;;;5070219;28;20366;-48
2021/12/30 04:52:03;;;;;;;59.70;8.93;;;8.00;99.90;;;;;;5074605;28;20045;-48
2021/12/30 04:54:30;;;;;;;;;;;8.10;99.90;;;;;;5086955;28;20393;-48
2021/12/30 04:56:56;;;;;;;54.05;8.60;;;8.10;99.90;;;;;;5073405;28;19969;-48
2021/12/30 04:59:22;;;;;;;55.35;9.15;;;8.10;99.90;;;;;;5108077;28;20131;-49
2021/12/30 05:01:49;;;;;;;51.92;8.98;;;8.20;99.90;;;;;;5069275;28;20122;-49
2021/12/30 05:04:16;;;;;;;50.15;9.13;;;8.20;99.90;;;;;;5076568;27;20048;-48
2021/12/30 05:06:43;;;;;;;60.97;10.65;;;8.20;99.90;;;;;;5077000;28;20039;-47
2021/12/30 05:09:09;;;;;;;56.78;11.25;;;8.40;99.90;;;;;;5098149;28;20154;-48
2021/12/30 05:11:41;;;;;;;71.57;11.40;;;8.50;99.90;;;;;;5084989;28;20386;-49
2021/12/30 05:14:11;;;;;;;63.22;10.80;;;8.50;99.90;;;;;;5058585;28;20432;-49
2021/12/30 05:16:38;;;;;;;58.90;12.05;;;8.60;99.90;;;;;;5071716;28;20463;-48
2021/12/30 05:19:05;;;;;;;65.93;12.32;;;8.70;99.90;;;;;;5078817;28;20549;-47
2021/12/30 05:21:32;;;;;;;65.68;12.27;;;8.70;99.90;;;;;;5083312;28;20050;-48
2021/12/30 05:23:58;;;;;;;71.53;13.93;;;8.80;99.90;;;;;;5095204;28;20454;-48
2021/12/30 05:26:27;;;;;;;56.80;13.35;;;8.90;99.90;;;;;;5116989;27;20795;-49
2021/12/30 05:28:57;;;;;;;65.97;14.32;;;8.90;99.90;;;;;;5090543;28;20043;-47
2021/12/30 05:31:26;;;;;;;76.75;13.82;;;9.10;99.90;;;;;;5107143;28;20527;-48
2021/12/30 05:33:52;;;;;;;67.90;14.60;;;9.20;99.90;;;;;;5107754;28;20546;-49
2021/12/30 05:36:18;;;;;;;75.18;14.75;;;9.20;99.90;;;;;;5092367;28;20130;-49
2021/12/30 05:38:44;;;;;;;71.35;14.32;;;9.30;99.90;;;;;;5087825;28;20401;-51
2021/12/30 05:41:12;;;;;;;68.73;14.77;;;9.30;99.90;;;;;;5091453;28;20078;-48
2021/12/30 05:43:38;;;;;;;71.57;16.60;;;9.40;99.90;;;;;;5088015;28;20082;-50
2021/12/30 05:46:04;;;;;;;74.82;17.38;;;9.20;99.90;;;;;;5088975;28;20075;-49
2021/12/30 05:48:30;;;;;;;90.97;18.08;;;9.30;99.90;;;;;;5084512;28;20089;-48
2021/12/30 05:50:59;;;;;;;66.20;17.20;;;9.30;99.90;;;;;;5071268;28;20055;-49
2021/12/30 05:53:30;;;;;;;83.10;17.15;;;9.40;99.90;;;;;;5069178;28;20036;-50
2021/12/30 05:55:57;;;;;;;84.38;17.92;;;9.50;99.90;;;;;;5069183;28;20048;-51
2021/12/30 05:58:23;;;;;;;79.20;17.08;;;9.50;99.90;;;;;;5085868;28;20079;-49
2021/12/30 06:00:49;;;;;;;76.82;17.63;;;9.50;99.90;;;;;;5084016;28;20105;-48
2021/12/30 06:03:19;;;;;;;78.80;17.70;;;9.60;99.90;;;;;;5072098;28;20293;-50
2021/12/30 06:05:47;;;;;;;75.97;17.90;;;9.60;99.90;;;;;;5089795;28;20139;-49
2021/12/30 06:08:15;;;;;;;66.72;16.50;;;9.60;99.90;;;;;;5082347;28;20040;-49
2021/12/30 06:10:42;;;;;;;56.08;15.70;;;9.60;99.90;;;;;;5069478;28;20135;-48
2021/12/30 06:13:09;;;;;;;55.33;14.50;;;9.60;99.90;;;;;;5052929;28;20091;-48
2021/12/30 06:15:36;;;;;;;49.63;14.52;;;9.60;99.90;;;;;;5052235;28;20161;-48
2021/12/30 06:18:03;;;;;;;45.83;15.07;;;9.70;99.90;;;;;;5076530;28;20545;-48
2021/12/30 06:20:30;;;;;;;53.25;14.07;;;9.70;99.90;;;;;;5088648;28;20429;-48
2021/12/30 06:22:58;;;;;;;39.70;13.00;;;9.80;99.90;;;;;;5075946;28;20048;-53
2021/12/30 06:25:24;;;;;;;39.50;12.32;;;9.80;99.90;;;;;;5070458;28;20043;-48
2021/12/30 06:27:50;;;;;;;39.13;11.90;;;9.80;99.90;;;;;;5080907;28;20101;-50
2021/12/30 06:30:16;;;;;;;38.20;11.63;;;9.90;99.90;;;;;;5084458;28;20048;-50
2021/12/30 06:32:42;;;;;;;33.60;11.55;;;9.90;99.90;;;;;;5082837;28;20052;-49
2021/12/30 06:35:10;;;;;;;35.40;11.85;;;9.90;99.90;;;;;;5069835;28;20044;-50
2021/12/30 06:37:38;;;;;;;38.20;11.38;;;9.90;99.90;;;;;;5078429;28;20110;-52
2021/12/30 06:40:06;;;;;;;39.50;12.15;;;10.00;99.90;;;;;;5089439;28;20072;-48
2021/12/30 06:42:32;;;;;;;32.30;11.45;;;10.00;99.90;;;;;;5111449;28;20039;-49
2021/12/30 06:44:59;;;;;;;43.75;12.45;;;10.00;99.90;;;;;;5091375;28;20038;-48
2021/12/30 06:47:25;;;;;;;36.97;13.90;;;10.10;99.90;;;;;;5110476;28;20043;-49
2021/12/30 06:49:52;;;;;;;50.67;13.52;;;10.10;99.90;;;;;;5080236;28;20079;-48
2021/12/30 06:52:18;;;;;;;47.60;13.57;;;10.10;99.90;;;;;;5110619;28;20093;-51
2021/12/30 06:54:44;;;;;;;47.72;13.48;;;10.10;99.90;;;;;;5091962;28;20036;-50
2021/12/30 06:57:11;;;;;;;51.22;13.60;;;10.20;99.90;;;;;;5101562;28;20040;-50
2021/12/30 06:59:37;;;;;;;49.17;12.75;;;10.20;99.90;;;;;;5060304;28;20442;-53
2021/12/30 07:02:05;;;;;;;48.42;12.85;;;10.20;99.90;;;;;;5082486;28;20051;-49
2021/12/30 07:04:31;;;;;;;50.97;13.43;;;10.20;99.90;;;;;;5059313;28;20455;-54
2021/12/30 07:06:59;;;;;;;51.50;13.13;;;10.20;99.90;;;;;;5083259;28;20075;-52
2021/12/30 07:09:25;;;;;;;45.08;12.80;;;10.20;99.90;;;;;;5085511;28;20048;-49
2021/12/30 07:11:52;;;;;;;49.10;12.85;;;10.20;99.90;;;;;;5055216;28;20135;-50
2021/12/30 07:14:19;;;;;;;39.10;11.87;;;10.30;99.90;;;;;;5089372;28;20048;-50
2021/12/30 07:16:46;;;;;;;38.38;12.35;;;10.30;99.90;;;;;;5051534;28;20453;-50
2021/12/30 07:19:12;;;;;;;55.40;12.75;;;10.30;99.90;;;;;;5092900;28;20043;-49
2021/12/30 07:21:38;;;;;;;43.00;11.95;;;10.30;99.90;;;;;;5089463;28;20046;-49
2021/12/30 07:24:05;;;;;;;46.88;11.82;;;10.30;99.90;;;;;;5094585;28;20096;-50
2021/12/30 07:26:31;;;;;;;47.47;12.17;;;10.30;99.90;;;;;;5091249;28;20251;-51
2021/12/30 07:28:57;;;;;;;36.95;10.85;;;10.30;99.90;;;;;;5120850;27;20130;-50
2021/12/30 07:31:23;;;;;;;41.45;10.48;;;10.40;99.90;;;;;;5115222;27;20051;-50
2021/12/30 07:33:50;;;;;;;39.45;9.65;;;10.40;99.90;;;;;;5091541;28;20071;-49
2021/12/30 07:36:16;;;;;;;30.80;9.63;;;10.40;99.90;;;;;;5116079;27;20039;-52
2021/12/30 07:38:41;;;;;;;36.88;9.77;;;10.40;99.90;;;;;;5091461;28;20051;-50
2021/12/30 07:41:09;;;;;;;38.80;9.57;;;10.40;99.90;;;;;;5087484;28;20096;-53
2021/12/30 07:43:35;;;;;;;30.40;9.98;;;10.40;99.90;;;;;;5089682;28;20040;-50
2021/12/30 07:46:01;;;;;;;35.45;9.18;;;10.40;99.90;;;;;;5096762;28;20498;-50
2021/12/30 07:48:28;;;;;;;26.27;8.27;;;10.40;99.90;;;;;;5104462;28;20117;-52
2021/12/30 07:50:54;;;;;;;29.87;8.93;;;10.50;99.90;;;;;;5091154;28;20055;-51
2021/12/30 07:53:20;;;;;;;30.83;9.38;;;10.50;99.90;;;;;;5088402;28;20305;-50
2021/12/30 07:55:46;;;;;;;33.08;9.43;;;10.50;99.90;;;;;;5087982;28;20054;-50
2021/12/30 07:58:12;;;;;;;29.75;8.57;;;10.50;99.90;;;;;;5071316;28;20054;-50
2021/12/30 08:00:39;;;;;;;26.15;8.10;;;10.60;99.90;;;;;;5088457;28;20038;-50
2021/12/30 08:03:04;;;;;;;28.85;8.80;;;10.60;99.90;;;;;;5087128;28;20048;-51
2021/12/30 08:05:30;;;;;;;20.40;7.60;;;10.60;99.90;;;;;;5086238;28;20371;-52
2021/12/30 08:07:57;;;;;;;23.95;7.32;;;10.60;99.90;;;;;;5085995;28;20081;-50
2021/12/30 08:10:24;;;;;;;18.42;6.80;;;10.60;99.90;;;;;;5088784;28;20048;-51
2021/12/30 08:12:52;;;;;;;19.08;6.50;;;10.60;99.90;;;;;;5105849;28;20135;-51
2021/12/30 08:15:19;;;;;;;13.73;6.00;;;10.70;99.90;;;;;;5090537;28;20042;-51
2021/12/30 08:17:46;;;;;;;17.50;6.13;;;10.70;99.90;;;;;;5089418;28;20035;-51
2021/12/30 08:20:14;;;;;;;13.50;5.18;;;10.70;99.90;;;;;;5107799;28;20043;-53
2021/12/30 08:22:40;;;;;;;11.43;4.68;;;10.70;99.90;;;;;;5109648;28;20409;-50
2021/12/30 08:25:08;;;;;;;11.63;5.05;;;10.70;99.90;;;;;;5097006;28;20477;-50
2021/12/30 08:27:33;;;;;;;;;;;10.70;99.90;;;;;;5089108;28;20131;-53
2021/12/30 08:30:00;;;;;;;12.48;4.57;;;10.70;99.90;;;;;;5109575;28;19915;-52
2021/12/30 08:32:26;;;;;;;12.20;5.30;;;10.80;99.90;;;;;;5108954;28;20071;-52
2021/12/30 08:34:53;;;;;;;7.63;4.25;;;10.80;99.90;;;;;;5112282;28;20120;-51
2021/12/30 08:37:20;;;;;;;9.65;4.03;;;10.80;99.90;;;;;;5093988;28;20497;-52
2021/12/30 08:39:46;;;;;;;12.77;4.20;;;10.80;99.90;;;;;;5111363;28;20127;-51
2021/12/30 08:42:27;;;;;;;7.25;3.30;;;10.80;99.90;;;;;;5076722;28;20123;-49
2021/12/30 08:44:58;;;;;;;6.85;3.13;;;10.80;99.90;;;;;;5074581;28;20381;-52
2021/12/30 08:47:26;;;;;;;6.38;2.78;;;10.90;99.90;;;;;;5093048;28;20051;-49
2021/12/30 08:49:53;;;;;;;5.05;2.63;;;10.90;99.90;;;;;;5073993;28;20047;-50
2021/12/30 08:52:39;;;;;;;6.15;2.83;;;11.00;99.90;;;;;;5114624;28;20038;-49
2021/12/30 08:55:06;;;;;;;7.35;3.17;;;10.90;99.90;;;;;;5090211;28;20066;-53
2021/12/30 08:57:33;;;;;;;10.35;4.45;;;11.00;99.90;;;;;;5110577;28;20059;-51
2021/12/30 09:00:00;;;;;;;;;;;11.00;99.90;;;;;;5093771;28;20226;-53
2021/12/30 09:02:26;;;;;;;16.08;5.70;;;11.00;99.90;;;;;;5111296;28;19915;-52
2021/12/30 09:04:52;;;;;;;12.65;5.88;;;11.00;99.90;;;;;;5090938;28;20044;-51
2021/12/30 09:07:19;;;;;;;11.32;5.50;;;11.00;99.90;;;;;;5061472;28;20047;-49
2021/12/30 09:09:46;;;;;;;19.80;6.00;;;11.10;99.90;;;;;;5089421;28;20489;-53
2021/12/30 09:12:12;;;;;;;11.57;6.20;;;11.10;99.90;;;;;;5092445;28;20123;-49
2021/12/30 09:14:40;;;;;;;14.63;5.53;;;11.10;99.90;;;;;;5113170;28;20497;-51
2021/12/30 09:17:06;;;;;;;;;;;11.10;99.90;;;;;;5114831;28;20169;-55
2021/12/30 09:19:32;;;;;;;11.30;5.05;;;11.10;99.90;;;;;;5110883;28;19964;-50
2021/12/30 09:21:58;;;;;;;13.63;5.35;;;11.10;99.90;;;;;;5114368;28;20415;-51
2021/12/30 09:24:24;;;;;;;13.10;5.05;;;11.10;99.90;;;;;;5127269;27;20414;-53
2021/12/30 09:26:51;;;;;;;13.38;4.82;;;11.10;99.90;;;;;;5095002;28;20050;-52
2021/12/30 09:29:17;;;;;;;14.90;5.10;;;11.10;99.90;;;;;;5114387;28;20122;-49
2021/12/30 09:31:51;;;;;;;12.98;5.00;;;11.20;99.90;;;;;;5113557;28;20051;-50
2021/12/30 09:34:18;;;;;;;22.88;5.75;;;11.20;99.90;;;;;;5104884;28;20128;-50
2021/12/30 09:36:44;;;;;;;;;;;11.20;99.90;;;;;;5091327;28;20042;-52
2021/12/30 09:39:12;;;;;;;15.55;4.90;;;11.20;99.90;;;;;;5109210;28;19919;-53
2021/12/30 09:41:40;;;;;;;17.70;5.53;;;11.20;99.90;;;;;;5108735;28;20461;-50
2021/12/30 09:44:08;;;;;;;19.70;6.25;;;11.20;99.90;;;;;;5066295;28;20127;-50
2021/12/30 09:46:34;;;;;;;17.63;5.50;;;11.20;99.90;;;;;;5084250;28;20509;-53
2021/12/30 09:49:03;;;;;;;19.42;6.13;;;11.20;99.90;;;;;;5097807;28;20044;-50
2021/12/30 09:51:29;;;;;;;20.50;6.00;;;11.20;99.90;;;;;;5096981;28;20492;-51
2021/12/30 09:53:55;;;;;;;24.65;5.90;;;11.20;99.90;;;;;;5104030;28;20047;-50
2021/12/30 09:56:22;;;;;;;19.50;5.70;;;11.20;99.90;;;;;;5091775;28;20137;-49
2021/12/30 09:58:48;;;;;;;17.35;6.25;;;11.20;99.90;;;;;;5073260;28;20117;-49
2021/12/30 10:01:15;;;;;;;21.63;6.60;;;11.20;99.90;;;;;;5094063;28;20044;-48
2021/12/30 10:03:42;;;;;;;14.55;6.07;;;11.30;99.90;;;;;;5075375;28;20130;-50
2021/12/30 10:06:13;;;;;;;18.97;6.30;;;11.30;99.90;;;;;;5080025;28;20486;-48
2021/12/30 10:08:52;;;;;;;446.90;354.15;;;11.20;99.90;;;;;;5057555;28;20289;-52
2021/12/30 10:11:17;;;;;;;41.50;27.08;;;11.30;99.90;;;;;;5082560;28;20428;-49
2021/12/30 10:14:01;;;;;;;37.40;26.35;;;11.30;99.90;;;;;;5065620;28;20054;-49
2021/12/30 10:16:28;;;;;;;28.10;13.38;;;11.30;99.90;;;;;;5090391;28;20040;-49
2021/12/30 10:19:05;;;;;;;22.73;10.65;;;11.40;99.90;;;;;;5073832;28;20043;-50
2021/12/30 10:21:37;;;;;;;15.43;7.13;;;11.40;99.90;;;;;;5076092;28;20051;-50
2021/12/30 10:24:07;;;;;;;18.92;8.43;;;11.40;99.90;;;;;;5103663;28;20048;-49
2021/12/30 10:26:54;;;;;;;27.30;8.27;;;11.50;99.90;;;;;;5075175;28;20112;-49
2021/12/30 10:29:22;;;;;;;31.75;11.48;;;11.60;99.90;;;;;;5081485;28;20052;-47
2021/12/30 10:31:50;;;;;;;18.90;7.80;;;11.60;99.90;;;;;;5096419;28;20104;-52
2021/12/30 10:34:17;;;;;;;24.52;9.35;;;11.60;99.90;;;;;;5094672;28;20784;-53
2021/12/30 10:36:50;;;;;;;32.05;15.65;;;11.60;99.90;;;;;;5065700;28;20047;-50
2021/12/30 10:39:26;;;;;;;20.50;11.02;;;11.70;99.90;;;;;;5056780;28;20048;-52
2021/12/30 10:41:58;;;;;;;20.10;6.20;;;11.70;99.90;;;;;;5075748;28;20043;-51
2021/12/30 10:44:45;;;;;;;35.42;22.40;;;11.80;99.90;;;;;;5083778;28;20109;-52
2021/12/30 10:47:11;;;;;;;21.52;6.68;;;11.80;99.90;;;;;;5083151;28;20055;-52
2021/12/30 10:49:36;;;;;;;23.60;6.18;;;11.80;99.90;;;;;;5087146;28;20055;-52
2021/12/30 10:52:05;;;;;;;23.50;8.00;;;11.80;99.90;;;;;;5087635;28;20043;-49
2021/12/30 10:54:34;;;;;;;36.45;20.70;;;11.90;99.90;;;;;;5104843;28;20092;-48
2021/12/30 10:57:05;;;;;;;23.38;8.38;;;11.90;99.90;;;;;;5084200;28;20035;-50
2021/12/30 11:00:04;;;;;;;16.75;7.70;;;11.90;99.90;;;;;;5096314;28;20039;-49
2021/12/30 11:02:32;;;;;;;28.48;13.27;;;11.80;99.90;;;;;;5036296;28;20062;-49
2021/12/30 11:05:02;;;;;;;;;;;11.80;99.90;;;;;;5086108;28;20044;-52
2021/12/30 11:07:46;;;;;;;290.33;226.60;;;11.80;99.90;;;;;;5103317;28;19919;-49
2021/12/30 11:10:16;;;;;;;300.00;234.90;;;11.80;99.90;;;;;;5083946;28;20047;-51
2021/12/30 11:12:47;;;;;;;63.47;52.30;;;11.80;99.90;;;;;;5082688;28;20044;-50
2021/12/30 11:15:24;;;;;;;29.50;14.00;;;11.80;99.90;;;;;;5085817;28;20052;-50
2021/12/30 11:18:05;;;;;;;22.63;9.52;;;11.80;99.90;;;;;;5082742;28;20036;-49
2021/12/30 11:31:52;;;;;;;33.50;9.50;;;12.00;99.90;;;;;;5070710;28;20540;-51
2021/12/30 11:34:22;;;;;;;24.42;7.55;;;12.00;99.90;;;;;;5073360;28;20226;-52
2021/12/30 11:36:48;;;;;;;40.47;20.13;;;12.10;99.90;;;;;;5093061;28;20043;-49
2021/12/30 11:39:17;;;;;;;33.92;7.65;;;12.10;99.90;;;;;;5067123;28;20052;-47
2021/12/30 11:41:47;;;;;;;31.65;8.38;;;12.10;99.90;;;;;;5082037;28;20047;-46
2021/12/30 11:44:31;;;;;;;31.05;10.23;;;12.10;99.90;;;;;;5088834;28;20044;-48
2021/12/30 11:46:57;;;;;;;35.80;14.13;;;12.10;99.90;;;;;;5083381;28;20048;-50
2021/12/30 11:49:23;;;;;;;34.00;12.20;;;12.10;99.90;;;;;;5071042;28;20048;-48
2021/12/30 11:51:53;;;;;;;27.15;12.02;;;12.10;99.90;;;;;;5035477;28;20044;-48
2021/12/30 11:54:37;;;;;;;40.55;13.95;;;12.10;99.90;;;;;;5080330;28;20043;-49
2021/12/30 11:57:34;;;;;;;28.50;8.50;;;12.10;99.90;;;;;;5065816;28;20384;-49
2021/12/30 12:00:51;;;;;;;34.83;11.65;;;12.00;99.90;;;;;;5077587;28;20039;-52
2021/12/30 12:03:40;;;;;;;35.78;10.75;;;12.00;99.90;;;;;;5050096;28;20042;-49
2021/12/30 12:06:28;;;;;;;54.45;30.95;;;12.00;99.90;;;;;;5063994;28;20378;-48
2021/12/30 12:09:12;;;;;;;;;;;12.00;99.90;;;;;;5062908;28;20119;-48
2021/12/30 12:11:40;;;;;;;36.25;12.77;;;11.90;99.90;;;;;;5076119;28;20032;-49
2021/12/30 12:14:21;;;;;;;34.13;8.00;;;11.90;99.90;;;;;;5085214;28;20084;-48
2021/12/30 12:17:01;;;;;;;42.53;8.27;;;12.00;99.90;;;;;;5067132;28;20032;-47
2021/12/30 12:19:41;;;;;;;39.47;6.47;;;12.00;99.90;;;;;;5081111;28;20039;-48
2021/12/30 12:22:29;;;;;;;31.05;6.82;;;12.00;99.90;;;;;;5064551;28;20087;-50
2021/12/30 12:25:07;;;;;;;39.30;14.98;;;11.90;99.90;;;;;;5084496;28;20036;-46
2021/12/30 12:27:38;;;;;;;39.25;11.60;;;11.90;99.90;;;;;;5083453;28;20105;-48
2021/12/30 12:30:07;;;;;;;48.58;15.65;;;11.90;99.90;;;;;;5067522;28;20462;-49
2021/12/30 12:32:38;;;;;;;42.33;11.75;;;11.90;99.90;;;;;;5068457;28;20124;-49
2021/12/30 12:35:24;;;;;;;28.50;7.63;;;11.90;99.90;;;;;;5084921;28;20036;-48
2021/12/30 12:37:59;;;;;;;25.00;7.18;;;12.00;99.90;;;;;;5068508;28;20062;-49
2021/12/30 12:40:33;;;;;;;29.73;9.00;;;11.90;99.90;;;;;;5084919;28;20060;-48
2021/12/30 12:43:26;;;;;;;31.02;6.70;;;12.00;99.90;;;;;;5067547;28;20084;-48
2021/12/30 12:45:53;;;;;;;35.13;6.53;;;12.00;99.90;;;;;;5084729;28;20035;-50
2021/12/30 12:48:26;;;;;;;67.72;34.78;;;12.00;99.90;;;;;;5066336;28;20636;-50
2021/12/30 12:50:59;;;;;;;216.85;160.90;;;12.00;99.90;;;;;;5078965;28;20052;-50
2021/12/30 12:53:27;;;;;;;42.08;15.02;;;12.00;99.90;;;;;;5053145;28;20044;-48
2021/12/30 12:55:58;;;;;;;57.50;32.15;;;12.00;99.90;;;;;;5080696;28;20043;-50
2021/12/30 12:58:27;;;;;;;43.53;17.48;;;12.00;99.90;;;;;;5080030;28;20036;-49
2021/12/30 13:00:57;;;;;;;30.42;11.85;;;12.00;99.90;;;;;;5074331;28;20035;-48